createdAt,value
2019-03-08T00:02:24.615Z,8.20
2019-03-08T00:06:29.064Z,8.10
2019-03-08T00:10:33.835Z,8.00
2019-03-08T00:14:38.383Z,8.10
2019-03-08T00:18:43.008Z,8.00
2019-03-08T00:22:47.442Z,8.00
2019-03-08T00:26:51.835Z,7.90
2019-03-08T00:30:56.538Z,7.90
2019-03-08T00:35:01.223Z,8.00
2019-03-08T00:39:06.447Z,8.00
2019-03-08T00:43:12.827Z,8.00
2019-03-08T00:47:17.279Z,8.10
2019-03-08T00:51:21.803Z,8.00
2019-03-08T00:55:26.395Z,8.00
2019-03-08T00:59:31.859Z,8.00
2019-03-08T01:03:37.941Z,8.00
2019-03-08T01:07:42.386Z,8.00
2019-03-08T01:11:47.130Z,8.10
2019-03-08T01:15:51.544Z,8.10
2019-03-08T01:19:56.610Z,8.10
2019-03-08T01:24:01.064Z,8.10
2019-03-08T01:28:07.910Z,8.10
2019-03-08T01:32:12.795Z,8.00
2019-03-08T01:36:19.259Z,7.90
2019-03-08T01:40:24.648Z,7.90
2019-03-08T01:44:29.525Z,7.80
2019-03-08T01:48:34.469Z,7.80
2019-03-08T01:52:39.353Z,7.80
2019-03-08T01:56:44.178Z,7.80
2019-03-08T02:00:48.765Z,7.90
2019-03-08T02:04:53.591Z,7.80
2019-03-08T02:08:58.411Z,7.70
2019-03-08T02:13:03.463Z,7.70
2019-03-08T02:17:09.425Z,7.70
2019-03-08T02:21:14.142Z,7.80
2019-03-08T02:25:18.651Z,7.80
2019-03-08T02:29:23.453Z,7.80
2019-03-08T02:33:27.889Z,7.80
2019-03-08T02:37:32.432Z,7.80
2019-03-08T02:41:36.869Z,7.80
2019-03-08T02:45:41.900Z,7.80
2019-03-08T02:49:46.360Z,7.80
2019-03-08T02:53:50.955Z,7.90
2019-03-08T02:57:55.774Z,7.80
2019-03-08T03:02:00.256Z,7.80
2019-03-08T03:06:04.666Z,7.80
2019-03-08T03:10:09.105Z,7.80
2019-03-08T03:14:14.243Z,7.80
2019-03-08T03:18:19.185Z,7.80
2019-03-08T03:22:23.672Z,7.80
2019-03-08T03:26:28.379Z,7.80
2019-03-08T03:30:32.863Z,7.90
2019-03-08T03:34:37.751Z,8.00
2019-03-08T03:38:42.474Z,8.00
2019-03-08T03:42:47.449Z,8.00
2019-03-08T03:46:51.880Z,8.10
2019-03-08T03:50:56.321Z,8.20
2019-03-08T03:55:00.912Z,8.20
2019-03-08T03:59:05.433Z,8.20
2019-03-08T04:03:09.855Z,8.20
2019-03-08T04:07:14.737Z,8.20
2019-03-08T04:11:19.492Z,8.20
2019-03-08T04:15:24.349Z,8.20
2019-03-08T04:19:28.769Z,8.20
2019-03-08T04:23:33.843Z,8.20
2019-03-08T04:27:38.641Z,8.20
2019-03-08T04:31:43.242Z,8.10
2019-03-08T04:35:47.793Z,8.20
2019-03-08T04:39:52.488Z,8.20
2019-03-08T04:43:57.504Z,8.30
2019-03-08T04:48:01.899Z,8.40
2019-03-08T04:52:06.355Z,8.50
2019-03-08T04:56:11.119Z,8.60
2019-03-08T05:00:16.989Z,8.60
2019-03-08T05:04:21.832Z,8.70
2019-03-08T05:08:26.714Z,8.70
2019-03-08T05:12:31.943Z,8.70
2019-03-08T05:16:37.076Z,8.70
2019-03-08T05:20:41.551Z,8.70
2019-03-08T05:24:47.351Z,8.70
2019-03-08T05:28:51.771Z,8.80
2019-03-08T05:32:56.489Z,8.80
2019-03-08T05:37:00.870Z,8.80
2019-03-08T05:41:05.292Z,8.80
2019-03-08T05:45:10.138Z,8.80
2019-03-08T05:49:14.811Z,8.80
2019-03-08T05:53:19.387Z,8.80
2019-03-08T05:57:26.150Z,8.80
2019-03-08T06:01:30.550Z,8.90
2019-03-08T06:05:35.037Z,8.90
2019-03-08T06:09:39.555Z,8.90
2019-03-08T06:13:44.540Z,8.90
2019-03-08T06:17:52.535Z,8.90
2019-03-08T06:21:58.009Z,9.00
2019-03-08T06:26:02.973Z,9.00
2019-03-08T06:30:07.954Z,9.10
2019-03-08T06:34:12.976Z,9.10
2019-03-08T06:38:19.539Z,9.20
2019-03-08T06:42:24.544Z,9.30
2019-03-08T06:46:29.545Z,9.30
2019-03-08T06:50:37.703Z,9.30
2019-03-08T06:54:42.421Z,9.30
2019-03-08T06:58:51.807Z,9.20
2019-03-08T07:02:57.936Z,9.30
2019-03-08T07:07:02.882Z,9.20
2019-03-08T07:11:07.819Z,9.20
2019-03-08T07:15:12.662Z,9.20
2019-03-08T07:19:17.098Z,9.20
2019-03-08T07:23:34.092Z,9.20
2019-03-08T07:28:01.704Z,9.30
2019-03-08T07:32:24.050Z,9.30
2019-03-08T07:36:57.380Z,9.40
2019-03-08T07:41:29.367Z,9.40
2019-03-08T07:45:51.246Z,9.50
2019-03-08T07:50:03.045Z,9.50
2019-03-08T07:54:17.087Z,9.40
2019-03-08T07:58:29.637Z,9.50
2019-03-08T08:03:03.344Z,9.50
2019-03-08T08:07:10.606Z,9.60
2019-03-08T08:11:40.538Z,9.50
2019-03-08T08:16:09.662Z,9.50
2019-03-08T08:20:36.586Z,9.60
2019-03-08T08:25:00.530Z,9.50
2019-03-08T08:29:23.248Z,9.70
2019-03-08T08:33:36.340Z,9.70
2019-03-08T08:37:58.574Z,9.80
2019-03-08T08:42:28.963Z,9.90
2019-03-08T08:46:43.384Z,9.90
2019-03-08T08:51:09.387Z,9.80
2019-03-08T08:55:23.477Z,9.80
2019-03-08T08:59:41.690Z,9.60
2019-03-08T09:04:03.749Z,9.50
2019-03-08T09:08:30.719Z,9.50
2019-03-08T09:12:40.336Z,9.50
2019-03-08T09:17:02.893Z,9.60
2019-03-08T09:21:29.411Z,9.70
2019-03-08T09:25:43.208Z,9.60
2019-03-08T09:30:06.099Z,9.70
2019-03-08T09:34:23.188Z,9.70
2019-03-08T09:38:56.023Z,9.50
2019-03-08T09:43:14.771Z,9.20
2019-03-08T09:47:37.654Z,8.90
2019-03-08T09:51:52.040Z,8.60
2019-03-08T09:56:11.842Z,8.60
2019-03-08T10:00:48.239Z,8.60
2019-03-08T10:05:09.276Z,8.70
2019-03-08T10:09:24.766Z,8.40
2019-03-08T10:13:38.331Z,8.10
2019-03-08T10:18:01.931Z,7.90
2019-03-08T10:22:21.952Z,7.60
2019-03-08T10:26:55.669Z,7.70
2019-03-08T10:31:08.180Z,7.90
2019-03-08T10:35:31.025Z,8.10
2019-03-08T10:39:48.022Z,8.30
2019-03-08T10:43:57.860Z,8.40
2019-03-08T10:48:18.928Z,8.80
2019-03-08T10:52:57.968Z,9.40
2019-03-08T10:57:24.632Z,9.70
2019-03-08T11:01:47.206Z,9.70
2019-03-08T11:06:15.552Z,10.10
2019-03-08T11:10:37.881Z,9.70
2019-03-08T11:15:00.316Z,8.80
2019-03-08T11:19:27.765Z,8.00
2019-03-08T11:23:38.345Z,7.70
2019-03-08T11:28:09.891Z,7.60
2019-03-08T11:32:23.049Z,7.50
2019-03-08T11:36:35.565Z,7.50
2019-03-08T11:40:49.937Z,7.50
2019-03-08T11:45:05.145Z,7.50
2019-03-08T11:49:23.160Z,7.60
2019-03-08T11:53:45.447Z,7.70
2019-03-08T11:58:09.616Z,7.90
2019-03-08T12:02:24.060Z,8.30
2019-03-08T12:06:36.827Z,9.50
2019-03-08T12:11:09.749Z,11.50
2019-03-08T12:15:32.140Z,12.50
2019-03-08T12:19:51.638Z,13.30
2019-03-08T12:24:23.124Z,12.70
2019-03-08T12:28:40.817Z,11.80
2019-03-08T12:32:53.106Z,10.60
2019-03-08T12:37:07.051Z,10.60
2019-03-08T12:41:19.761Z,10.80
2019-03-08T12:45:49.595Z,10.70
2019-03-08T12:50:07.248Z,10.50
2019-03-08T12:54:27.551Z,10.30
2019-03-08T12:58:57.652Z,9.60
2019-03-08T13:03:12.346Z,8.70
2019-03-08T13:07:45.014Z,8.90
2019-03-08T13:11:49.907Z,9.00
2019-03-08T13:15:54.754Z,9.10
2019-03-08T13:19:59.258Z,9.10
2019-03-08T13:24:04.102Z,9.00
2019-03-08T13:28:09.681Z,9.20
2019-03-08T13:32:14.370Z,9.50
2019-03-08T13:36:21.872Z,9.80
2019-03-08T13:40:27.059Z,10.00
2019-03-08T13:44:33.610Z,10.00
2019-03-08T13:48:39.131Z,10.10
2019-03-08T13:52:44.085Z,10.00
2019-03-08T13:56:49.093Z,10.10
2019-03-08T14:00:55.864Z,10.20
2019-03-08T14:05:00.637Z,9.90
2019-03-08T14:09:07.542Z,9.80
2019-03-08T14:13:12.302Z,9.80
2019-03-08T14:17:16.891Z,9.80
2019-03-08T14:21:21.942Z,9.90
2019-03-08T14:25:27.195Z,10.00
2019-03-08T14:29:31.826Z,9.90
2019-03-08T14:33:38.173Z,9.90
2019-03-08T14:37:42.771Z,9.80
2019-03-08T14:41:53.543Z,9.90
2019-03-08T14:46:23.317Z,9.90
2019-03-08T14:50:27.876Z,10.00
2019-03-08T14:54:32.356Z,10.00
2019-03-08T14:58:40.224Z,10.10
2019-03-08T15:02:47.237Z,10.10
2019-03-08T15:06:50.870Z,9.90
2019-03-08T15:10:55.684Z,9.80
2019-03-08T15:15:01.138Z,9.80
2019-03-08T15:19:06.101Z,9.70
2019-03-08T15:23:13.448Z,9.60
2019-03-08T15:27:17.279Z,9.60
2019-03-08T15:31:21.968Z,9.50
2019-03-08T15:35:27.108Z,9.40
2019-03-08T15:39:31.707Z,9.50
2019-03-08T15:43:36.224Z,9.50
2019-03-08T15:47:41.296Z,9.30
2019-03-08T15:51:46.049Z,9.30
2019-03-08T15:55:53.206Z,9.20
2019-03-08T15:59:57.502Z,9.10
2019-03-08T16:04:02.313Z,9.00
2019-03-08T16:08:06.920Z,9.00
2019-03-08T16:12:11.894Z,9.00
2019-03-08T16:16:16.726Z,8.90
2019-03-08T16:20:21.491Z,8.80
2019-03-08T16:24:27.214Z,8.70
2019-03-08T16:28:32.930Z,8.60
2019-03-08T16:32:56.541Z,8.60
2019-03-08T16:37:14.231Z,8.50
2019-03-08T16:41:37.882Z,8.50
2019-03-08T16:46:00.428Z,8.40
2019-03-08T16:50:26.043Z,8.30
2019-03-08T16:54:40.878Z,8.30
2019-03-08T16:58:55.913Z,8.20
2019-03-08T17:03:26.164Z,8.20
2019-03-08T17:07:42.516Z,8.10
2019-03-08T17:12:09.814Z,8.00
2019-03-08T17:16:32.515Z,7.90
2019-03-08T17:20:53.817Z,7.80
2019-03-08T17:25:11.303Z,7.80
2019-03-08T17:29:24.744Z,7.90
2019-03-08T17:33:51.598Z,7.80
2019-03-08T17:38:05.835Z,7.70
2019-03-08T17:42:36.416Z,7.80
2019-03-08T17:46:48.620Z,7.90
2019-03-08T17:51:08.145Z,7.70
2019-03-08T17:55:35.821Z,7.60
2019-03-08T17:59:58.047Z,7.40
2019-03-08T18:04:27.625Z,7.30
2019-03-08T18:08:42.966Z,7.30
2019-03-08T18:13:00.219Z,7.40
2019-03-08T18:17:23.736Z,7.40
2019-03-08T18:21:50.085Z,7.30
2019-03-08T18:26:08.668Z,7.30
2019-03-08T18:30:26.163Z,7.30
2019-03-08T18:34:40.880Z,7.30
2019-03-08T18:39:03.664Z,7.30
2019-03-08T18:43:34.718Z,7.40
2019-03-08T18:47:59.297Z,7.20
2019-03-08T18:52:14.611Z,7.10
2019-03-08T18:56:44.749Z,7.10
2019-03-08T19:01:18.171Z,7.00
2019-03-08T19:05:41.145Z,7.00
2019-03-08T19:10:01.397Z,6.50
2019-03-08T19:14:14.018Z,6.80
2019-03-08T19:18:32.419Z,6.80
2019-03-08T19:22:51.166Z,6.80
2019-03-08T19:27:05.244Z,6.70
2019-03-08T19:31:25.487Z,6.70
2019-03-08T19:35:51.969Z,6.60
2019-03-08T19:40:21.250Z,6.50
2019-03-08T19:44:33.176Z,6.50
2019-03-08T19:49:02.826Z,6.50
2019-03-08T19:53:26.013Z,6.50
2019-03-08T19:57:39.888Z,6.50
2019-03-08T20:02:03.391Z,6.40
2019-03-08T20:06:23.119Z,6.40
2019-03-08T20:10:46.456Z,6.30
2019-03-08T20:15:01.268Z,6.30
2019-03-08T20:19:17.643Z,6.20
2019-03-08T20:23:33.025Z,6.10
2019-03-08T20:27:59.495Z,6.10
2019-03-08T20:32:29.459Z,6.10
2019-03-08T20:36:44.601Z,6.00
2019-03-08T20:40:58.909Z,6.00
2019-03-08T20:45:20.687Z,5.90
2019-03-08T20:49:26.002Z,5.90
2019-03-08T20:53:31.741Z,5.90
2019-03-08T20:57:36.304Z,5.90
2019-03-08T21:01:43.035Z,5.90
2019-03-08T21:05:47.640Z,5.90
2019-03-08T21:09:53.550Z,6.00
2019-03-08T21:13:58.175Z,6.00
2019-03-08T21:18:03.777Z,6.00
2019-03-08T21:22:12.328Z,6.00
2019-03-08T21:26:17.495Z,6.00
2019-03-08T21:30:23.065Z,6.00
2019-03-08T21:34:30.280Z,6.00
2019-03-08T21:38:40.213Z,5.90
2019-03-08T21:42:46.960Z,5.90
2019-03-08T21:46:52.145Z,5.90
2019-03-08T21:50:56.683Z,5.80
2019-03-08T21:55:01.455Z,5.90
2019-03-08T21:59:10.249Z,5.90
2019-03-08T22:03:19.726Z,5.90
2019-03-08T22:07:25.230Z,5.90
2019-03-08T22:11:35.200Z,6.00
2019-03-08T22:15:41.848Z,5.90
2019-03-08T22:20:01.073Z,5.90
2019-03-08T22:24:13.297Z,5.90
2019-03-08T22:28:14.007Z,5.80
2019-03-08T22:32:19.422Z,5.80
2019-03-08T22:36:24.343Z,5.70
2019-03-08T22:40:28.934Z,5.70
2019-03-08T22:44:37.804Z,5.60
2019-03-08T22:48:42.218Z,5.60
2019-03-08T22:52:48.121Z,5.50
2019-03-08T22:56:55.725Z,5.50
2019-03-08T23:01:11.035Z,5.60
2019-03-08T23:05:18.321Z,5.60
2019-03-08T23:09:23.230Z,5.60
2019-03-08T23:13:29.236Z,5.60
2019-03-08T23:17:33.823Z,5.70
2019-03-08T23:21:38.330Z,5.70
2019-03-08T23:25:43.559Z,5.70
2019-03-08T23:29:55.360Z,5.70
2019-03-08T23:34:02.734Z,5.70
2019-03-08T23:38:08.728Z,5.70
2019-03-08T23:42:14.416Z,5.70
2019-03-08T23:46:20.068Z,5.80
2019-03-08T23:50:24.842Z,5.80
2019-03-08T23:54:29.628Z,5.90
2019-03-08T23:58:34.840Z,6.00
